Time;durP1;ratioP1;P1;durP2;ratioP2;P2;SDS_P1;SDS_P2;PMS_P1;PMS_P2;Temp;Humidity;BMP_temperature;BMP_pressure;BME280_temperature;BME280_humidity;BME280_pressure;Samples;Min_cycle;Max_cycle;Signal;HPM_P1;HPM_P2
2021/07/01 00:01:09;;;;;;;;;;;16.70;66.00;;;;;;5041045;28;19961;-85
2021/07/01 00:03:35;;;;;;;;;;;16.60;66.00;;;;;;5021621;28;19925;-86
2021/07/01 00:06:00;;;;;;;;;;;16.60;66.10;;;;;;5026366;28;20329;-85
2021/07/01 00:08:26;;;;;;;;;;;16.50;66.10;;;;;;5040276;28;19909;-85
2021/07/01 00:10:52;;;;;;;;;;;16.50;66.30;;;;;;5026393;28;19909;-85
2021/07/01 00:13:17;;;;;;;;;;;16.40;66.40;;;;;;5027851;28;19915;-86
2021/07/01 00:15:43;;;;;;;;;;;16.40;66.40;;;;;;5044787;28;19924;-85
2021/07/01 00:18:09;;;;;;;;;;;16.40;66.70;;;;;;5032605;28;19948;-84
2021/07/01 00:20:34;;;;;;;;;;;16.40;66.60;;;;;;5044031;28;19952;-85
2021/07/01 00:23:00;;;;;;;;;;;16.30;66.40;;;;;;5029770;28;19995;-85
2021/07/01 00:25:25;;;;;;;;;;;16.30;66.40;;;;;;5034320;28;19909;-84
2021/07/01 00:27:51;;;;;;;;;;;16.40;66.50;;;;;;5031256;28;19923;-85
2021/07/01 00:30:18;;;;;;;;;;;16.30;66.50;;;;;;5028611;28;19909;-85
2021/07/01 00:32:44;;;;;;;;;;;16.30;66.60;;;;;;5036999;28;19917;-85
2021/07/01 00:35:10;;;;;;;;;;;16.30;66.60;;;;;;5035741;28;19909;-85
2021/07/01 00:37:36;;;;;;;;;;;16.30;66.70;;;;;;5039840;28;19916;-86
2021/07/01 00:40:04;;;;;;;;;;;16.30;66.60;;;;;;5036809;28;19948;-85
2021/07/01 00:42:29;;;;;;;;;;;16.20;66.60;;;;;;5033292;28;19912;-85
2021/07/01 00:44:55;;;;;;;;;;;16.30;66.80;;;;;;5045236;28;19915;-85
2021/07/01 00:47:21;;;;;;;;;;;16.30;66.70;;;;;;5044706;28;19908;-85
2021/07/01 00:49:47;;;;;;;;;;;16.30;66.60;;;;;;5024370;28;19915;-85
2021/07/01 00:52:13;;;;;;;;;;;16.30;66.60;;;;;;5036730;28;19909;-85
2021/07/01 00:54:38;;;;;;;;;;;16.30;66.70;;;;;;5049928;28;19939;-85
2021/07/01 00:57:05;;;;;;;;;;;16.30;66.80;;;;;;5039876;28;19920;-85
2021/07/01 00:59:31;;;;;;;;;;;16.30;66.80;;;;;;5028367;28;19968;-85
2021/07/01 01:01:56;;;;;;;;;;;16.30;67.00;;;;;;5048927;28;20359;-85
2021/07/01 01:04:22;;;;;;;;;;;16.20;66.90;;;;;;5042297;28;19921;-85
2021/07/01 01:06:47;;;;;;;;;;;16.30;67.10;;;;;;5024412;28;20004;-84
2021/07/01 01:09:13;;;;;;;;;;;16.30;66.90;;;;;;5043147;28;20423;-84
2021/07/01 01:11:39;;;;;;;;;;;16.30;66.90;;;;;;5043989;28;19913;-85
2021/07/01 01:14:04;;;;;;;;;;;16.30;66.90;;;;;;5025979;28;19932;-84
2021/07/01 01:16:30;;;;;;;;;;;16.30;67.00;;;;;;5029838;28;19950;-85
2021/07/01 01:18:56;;;;;;;;;;;16.30;66.90;;;;;;5045785;28;19909;-84
2021/07/01 01:21:24;;;;;;;;;;;16.30;66.90;;;;;;5043223;28;20276;-84
2021/07/01 01:23:50;;;;;;;;;;;16.30;66.80;;;;;;5031522;28;20400;-85
2021/07/01 01:26:15;;;;;;;;;;;16.30;66.80;;;;;;5032281;28;19913;-85
2021/07/01 01:28:41;;;;;;;;;;;16.30;66.90;;;;;;5026846;28;19916;-85
2021/07/01 01:31:07;;;;;;;;;;;16.20;67.10;;;;;;5043504;28;19921;-85
2021/07/01 01:33:33;;;;;;;;;;;16.30;67.20;;;;;;5023547;28;20335;-85
2021/07/01 01:35:58;;;;;;;;;;;16.30;67.10;;;;;;5040545;28;19913;-85
2021/07/01 01:38:24;;;;;;;;;;;16.30;67.00;;;;;;5024203;28;20605;-85
2021/07/01 01:40:50;;;;;;;;;;;16.30;67.00;;;;;;5037100;28;19959;-85
2021/07/01 01:43:20;;;;;;;;;;;16.30;67.10;;;;;;5029387;28;19919;-85
2021/07/01 01:45:46;;;;;;;;;;;16.20;67.20;;;;;;5032497;28;20624;-85
2021/07/01 01:48:12;;;;;;;;;;;16.20;67.30;;;;;;5029581;28;19916;-85
2021/07/01 01:50:38;;;;;;;;;;;16.20;67.40;;;;;;5029055;28;20357;-84
2021/07/01 01:53:04;;;;;;;;;;;16.20;67.40;;;;;;5045658;28;19955;-85
2021/07/01 01:55:29;;;;;;;;;;;16.20;67.40;;;;;;5044490;28;20328;-85
2021/07/01 01:57:55;;;;;;;;;;;16.20;67.60;;;;;;5047459;28;19944;-85
2021/07/01 02:00:22;;;;;;;;;;;16.30;67.50;;;;;;5034299;28;19919;-85
2021/07/01 02:02:48;;;;;;;;;;;16.30;67.60;;;;;;5028121;28;19927;-85
2021/07/01 02:05:14;;;;;;;;;;;16.20;67.30;;;;;;5030303;28;20008;-85
2021/07/01 02:07:40;;;;;;;;;;;16.20;67.70;;;;;;5039935;28;20391;-85
2021/07/01 02:10:08;;;;;;;;;;;16.20;67.50;;;;;;5041008;28;19905;-86
2021/07/01 02:12:34;;;;;;;;;;;16.00;67.90;;;;;;5042674;28;20324;-85
2021/07/01 02:14:59;;;;;;;;;;;16.00;68.10;;;;;;5044750;28;19908;-85
2021/07/01 02:17:25;;;;;;;;;;;16.00;68.30;;;;;;5036288;28;19909;-85
2021/07/01 02:19:51;;;;;;;;;;;16.00;68.30;;;;;;5042110;28;19909;-84
2021/07/01 02:22:17;;;;;;;;;;;16.10;68.10;;;;;;5031867;28;20266;-85
2021/07/01 02:24:43;;;;;;;;;;;16.20;68.10;;;;;;5033911;28;20027;-85
2021/07/01 02:27:09;;;;;;;;;;;16.20;67.90;;;;;;5043178;28;20462;-86
2021/07/01 02:29:34;;;;;;;;;;;16.20;67.80;;;;;;5039242;28;19917;-85
2021/07/01 02:32:00;;;;;;;;;;;16.20;67.90;;;;;;5021242;28;19959;-86
2021/07/01 02:34:30;;;;;;;;;;;16.20;67.80;;;;;;5026313;28;20434;-86
2021/07/01 02:36:55;;;;;;;;;;;16.20;68.10;;;;;;5030521;28;19962;-86
2021/07/01 02:39:21;;;;;;;;;;;16.20;68.10;;;;;;5021791;28;19912;-86
2021/07/01 02:41:47;;;;;;;;;;;16.20;67.90;;;;;;5032673;28;19915;-85
2021/07/01 02:44:13;;;;;;;;;;;16.20;68.50;;;;;;5033253;28;19938;-86
2021/07/01 02:46:39;;;;;;;;;;;16.20;68.10;;;;;;5034878;28;19912;-86
2021/07/01 02:49:04;;;;;;;;;;;16.20;68.10;;;;;;5029661;28;20511;-86
2021/07/01 02:51:30;;;;;;;;;;;16.20;68.00;;;;;;5024433;28;19913;-86
2021/07/01 02:53:55;;;;;;;;;;;16.30;68.10;;;;;;5029003;28;20394;-86
2021/07/01 02:56:21;;;;;;;;;;;16.30;67.90;;;;;;5026723;28;19912;-86
2021/07/01 02:58:47;;;;;;;;;;;16.30;68.00;;;;;;5037774;28;19908;-86
2021/07/01 03:01:14;;;;;;;;;;;16.20;67.90;;;;;;5042362;28;20449;-86
2021/07/01 03:03:39;;;;;;;;;;;16.20;68.00;;;;;;5040293;28;20391;-86
2021/07/01 03:06:05;;;;;;;;;;;16.20;68.10;;;;;;5025203;28;19921;-85
2021/07/01 03:08:30;;;;;;;;;;;16.10;68.20;;;;;;5025820;28;19909;-86
2021/07/01 03:10:56;;;;;;;;;;;16.10;68.30;;;;;;5023429;28;20426;-86
2021/07/01 03:13:21;;;;;;;;;;;16.10;68.20;;;;;;5024466;28;20385;-86
2021/07/01 03:15:47;;;;;;;;;;;16.10;68.10;;;;;;5025779;28;19987;-85
2021/07/01 03:18:12;;;;;;;;;;;16.00;68.30;;;;;;5024721;28;19955;-86
2021/07/01 03:20:38;;;;;;;;;;;16.00;68.50;;;;;;5026670;28;20299;-86
2021/07/01 03:23:04;;;;;;;;;;;16.00;68.60;;;;;;5027241;28;20431;-86
2021/07/01 03:25:29;;;;;;;;;;;16.10;68.60;;;;;;5027086;28;20332;-86
2021/07/01 03:27:55;;;;;;;;;;;16.10;68.60;;;;;;5024924;28;19913;-86
2021/07/01 03:30:21;;;;;;;;;;;16.10;68.40;;;;;;5037652;28;19916;-86
2021/07/01 03:32:47;;;;;;;;;;;16.10;68.50;;;;;;5037662;28;20000;-86
2021/07/01 03:35:12;;;;;;;;;;;16.10;68.50;;;;;;5051079;28;19916;-86
2021/07/01 03:37:38;;;;;;;;;;;16.10;68.40;;;;;;5032497;28;20366;-86
2021/07/01 03:40:04;;;;;;;;;;;16.10;68.40;;;;;;5043863;28;19919;-86
2021/07/01 03:42:29;;;;;;;;;;;16.00;68.50;;;;;;5039527;28;20063;-86
2021/07/01 03:44:55;;;;;;;;;;;16.10;68.80;;;;;;5029252;28;19961;-86
2021/07/01 03:47:20;;;;;;;;;;;16.10;68.50;;;;;;5042760;28;20388;-86
2021/07/01 03:49:46;;;;;;;;;;;16.20;68.70;;;;;;5056082;28;19909;-86
2021/07/01 03:52:12;;;;;;;;;;;16.20;68.60;;;;;;5049260;28;19908;-86
2021/07/01 03:54:37;;;;;;;;;;;16.20;68.60;;;;;;5031850;28;19916;-86
2021/07/01 03:57:03;;;;;;;;;;;16.20;68.60;;;;;;5034387;28;20004;-86
2021/07/01 03:59:29;;;;;;;;;;;16.20;68.60;;;;;;5042285;28;20362;-86
2021/07/01 04:01:54;;;;;;;;;;;16.30;68.60;;;;;;5030972;28;19912;-86
2021/07/01 04:04:20;;;;;;;;;;;16.30;68.50;;;;;;5043528;28;19916;-86
2021/07/01 04:06:45;;;;;;;;;;;16.30;68.60;;;;;;5028463;28;19909;-86
2021/07/01 04:09:11;;;;;;;;;;;16.30;68.60;;;;;;5045660;28;19937;-86
2021/07/01 04:11:37;;;;;;;;;;;16.20;68.50;;;;;;5026334;28;19908;-86
2021/07/01 04:14:03;;;;;;;;;;;16.20;68.60;;;;;;5044820;28;19909;-86
2021/07/01 04:16:29;;;;;;;;;;;16.20;68.70;;;;;;5038378;28;19909;-85
2021/07/01 04:18:55;;;;;;;;;;;16.20;68.80;;;;;;5041080;28;19943;-86
2021/07/01 04:21:25;;;;;;;;;;;16.20;68.80;;;;;;5044422;28;20002;-86
2021/07/01 04:23:51;;;;;;;;;;;16.20;68.70;;;;;;5029945;28;19913;-85
2021/07/01 04:26:17;;;;;;;;;;;16.20;68.70;;;;;;5025202;28;19961;-86
2021/07/01 04:28:42;;;;;;;;;;;16.20;69.30;;;;;;5037902;28;19917;-86
2021/07/01 04:31:08;;;;;;;;;;;16.20;68.80;;;;;;5043757;28;19913;-85
2021/07/01 04:33:34;;;;;;;;;;;16.20;68.80;;;;;;5045685;28;19913;-85
2021/07/01 04:35:59;;;;;;;;;;;16.30;68.70;;;;;;5045305;28;19909;-85
2021/07/01 04:38:26;;;;;;;;;;;16.30;68.70;;;;;;5029025;28;22258;-85
2021/07/01 04:40:52;;;;;;;;;;;16.30;68.50;;;;;;5028771;28;19909;-85
2021/07/01 04:43:17;;;;;;;;;;;16.30;68.80;;;;;;5029335;28;19913;-85
2021/07/01 04:45:43;;;;;;;;;;;16.30;68.80;;;;;;5032692;28;19948;-85
2021/07/01 04:48:09;;;;;;;;;;;16.30;68.70;;;;;;5023570;28;19909;-85
2021/07/01 04:50:34;;;;;;;;;;;16.30;68.70;;;;;;5022114;28;19975;-86
2021/07/01 04:53:00;;;;;;;;;;;16.20;68.80;;;;;;5033208;28;19977;-85
2021/07/01 04:55:25;;;;;;;;;;;16.20;68.90;;;;;;5032785;28;19935;-85
2021/07/01 04:57:51;;;;;;;;;;;16.30;68.90;;;;;;5052585;28;19909;-85
2021/07/01 05:00:16;;;;;;;;;;;16.20;68.80;;;;;;5024732;28;20387;-85
2021/07/01 05:02:42;;;;;;;;;;;16.30;68.90;;;;;;5029809;28;19979;-85
2021/07/01 05:05:08;;;;;;;;;;;16.30;69.00;;;;;;5054543;28;19916;-85
2021/07/01 05:07:40;;;;;;;;;;;16.30;69.00;;;;;;5044648;28;19904;-86
2021/07/01 05:10:05;;;;;;;;;;;16.40;68.80;;;;;;5033576;28;21187;-85
2021/07/01 05:12:31;;;;;;;;;;;16.40;68.70;;;;;;5041452;28;19911;-85
2021/07/01 05:14:56;;;;;;;;;;;16.50;68.70;;;;;;5047183;28;19909;-85
2021/07/01 05:17:22;;;;;;;;;;;16.40;68.70;;;;;;5043817;28;20258;-86
2021/07/01 05:19:47;;;;;;;;;;;16.40;68.60;;;;;;5051046;28;19909;-85
2021/07/01 05:22:13;;;;;;;;;;;16.40;68.80;;;;;;5052772;28;19904;-85
2021/07/01 05:24:39;;;;;;;;;;;16.50;68.90;;;;;;5044740;28;19915;-85
2021/07/01 05:27:04;;;;;;;;;;;16.50;68.70;;;;;;5054398;28;19948;-85
2021/07/01 05:29:30;;;;;;;;;;;16.50;68.80;;;;;;5045835;28;19931;-85
2021/07/01 05:31:56;;;;;;;;;;;16.60;68.70;;;;;;5057469;28;19913;-86
2021/07/01 05:34:22;;;;;;;;;;;16.60;68.70;;;;;;5057403;28;19914;-85
2021/07/01 05:36:48;;;;;;;;;;;16.60;68.60;;;;;;5040958;28;19905;-85
2021/07/01 05:39:13;;;;;;;;;;;16.60;68.80;;;;;;5049831;28;19908;-85
2021/07/01 05:41:39;;;;;;;;;;;16.60;68.80;;;;;;5045517;28;19909;-85
2021/07/01 05:44:04;;;;;;;;;;;16.60;68.90;;;;;;5030495;28;19956;-85
2021/07/01 05:46:30;;;;;;;;;;;16.60;68.90;;;;;;5044829;28;20448;-85
2021/07/01 05:48:56;;;;;;;;;;;16.60;68.90;;;;;;5035331;28;19905;-85
2021/07/01 05:51:23;;;;;;;;;;;16.60;68.90;;;;;;5046567;28;19909;-86
2021/07/01 05:56:24;;;;;;;;;;;16.60;69.00;;;;;;5051665;28;19916;-86
2021/07/01 05:58:49;;;;;;;;;;;16.50;69.10;;;;;;5044216;28;19908;-85
2021/07/01 06:01:15;;;;;;;;;;;16.50;69.10;;;;;;5033751;28;19913;-85
2021/07/01 06:03:41;;;;;;;;;;;16.50;69.10;;;;;;5040607;28;19916;-85
2021/07/01 06:06:12;;;;;;;;;;;16.50;69.20;;;;;;5033725;28;19912;-86
2021/07/01 06:08:39;;;;;;;;;;;16.60;69.20;;;;;;5053941;28;19916;-86
2021/07/01 06:11:08;;;;;;;;;;;16.60;69.00;;;;;;5046012;28;20366;-86
2021/07/01 06:13:37;;;;;;;;;;;16.70;69.10;;;;;;5045080;28;20312;-86
2021/07/01 06:16:03;;;;;;;;;;;16.70;68.80;;;;;;5059328;28;19909;-85
2021/07/01 06:18:30;;;;;;;;;;;16.60;69.00;;;;;;5033901;28;20014;-86
2021/07/01 06:20:56;;;;;;;;;;;16.50;69.30;;;;;;5029757;28;19912;-86
2021/07/01 06:23:21;;;;;;;;;;;16.60;69.20;;;;;;5050435;28;19913;-85
2021/07/01 06:25:50;;;;;;;;;;;16.60;69.20;;;;;;5036011;28;20324;-85
2021/07/01 06:28:16;;;;;;;;;;;16.60;69.20;;;;;;5057986;28;19909;-85
2021/07/01 06:30:44;;;;;;;;;;;16.70;69.10;;;;;;5045876;28;19939;-85
2021/07/01 06:33:11;;;;;;;;;;;16.80;69.00;;;;;;5041663;28;22093;-86
2021/07/01 06:35:37;;;;;;;;;;;16.80;68.90;;;;;;5032190;28;19934;-85
2021/07/01 06:38:07;;;;;;;;;;;16.80;68.90;;;;;;5048374;28;20349;-85
2021/07/01 06:40:33;;;;;;;;;;;16.80;69.00;;;;;;5047183;28;20430;-86
2021/07/01 06:43:00;;;;;;;;;;;16.90;69.00;;;;;;5047845;28;19913;-85
2021/07/01 06:45:26;;;;;;;;;;;16.80;69.00;;;;;;5042963;28;19912;-85
2021/07/01 06:47:53;;;;;;;;;;;16.90;69.10;;;;;;5043800;28;19915;-85
2021/07/01 06:50:29;;;;;;;;;;;16.90;69.10;;;;;;5038487;28;20018;-86
2021/07/01 06:52:55;;;;;;;;;;;16.90;69.00;;;;;;5038715;28;19991;-85
2021/07/01 06:55:21;;;;;;;;;;;16.80;68.90;;;;;;5029740;28;20494;-85
2021/07/01 06:57:47;;;;;;;;;;;16.80;69.10;;;;;;5046880;28;20292;-85
2021/07/01 07:00:14;;;;;;;;;;;16.70;69.10;;;;;;5048723;28;20702;-85
2021/07/01 07:02:40;;;;;;;;;;;16.80;69.20;;;;;;5027467;28;19944;-85
2021/07/01 07:05:07;;;;;;;;;;;16.80;69.00;;;;;;5040004;28;19999;-85
2021/07/01 07:07:33;;;;;;;;;;;16.90;69.00;;;;;;5043005;28;19955;-85
2021/07/01 07:10:03;;;;;;;;;;;17.00;68.90;;;;;;5035200;28;19913;-85
2021/07/01 07:12:28;;;;;;;;;;;17.00;68.80;;;;;;5033553;28;19908;-85
2021/07/01 07:14:54;;;;;;;;;;;17.00;68.70;;;;;;5020749;28;19908;-85
2021/07/01 07:17:23;;;;;;;;;;;17.00;68.90;;;;;;5024135;28;20254;-85
2021/07/01 07:19:49;;;;;;;;;;;17.00;68.80;;;;;;5049702;28;19913;-85
2021/07/01 07:22:19;;;;;;;;;;;17.10;68.80;;;;;;5020503;28;20421;-85
2021/07/01 07:24:49;;;;;;;;;;;17.20;68.70;;;;;;5041245;28;19909;-85
2021/07/01 07:27:16;;;;;;;;;;;17.10;68.60;;;;;;5037975;28;19912;-85
2021/07/01 07:29:43;;;;;;;;;;;17.20;68.70;;;;;;5043546;28;20533;-85
2021/07/01 07:32:08;;;;;;;;;;;17.30;68.70;;;;;;5035176;28;20427;-85
2021/07/01 07:34:34;;;;;;;;;;;17.30;68.70;;;;;;5036562;28;19913;-85
2021/07/01 07:37:00;;;;;;;;;;;17.30;68.70;;;;;;5034458;28;20027;-85
2021/07/01 07:39:26;;;;;;;;;;;17.40;68.80;;;;;;5029684;28;19909;-85
2021/07/01 07:41:53;;;;;;;;;;;17.30;68.50;;;;;;5039344;28;19908;-85
2021/07/01 07:44:19;;;;;;;;;;;17.20;68.40;;;;;;5053740;28;20411;-85
2021/07/01 07:46:45;;;;;;;;;;;17.10;68.80;;;;;;5037771;28;20383;-85
2021/07/01 07:49:11;;;;;;;;;;;17.10;69.10;;;;;;5036552;28;20027;-85
2021/07/01 07:51:38;;;;;;;;;;;17.10;68.80;;;;;;5045311;28;20038;-85
2021/07/01 07:54:06;;;;;;;;;;;17.20;68.90;;;;;;5040119;28;20888;-85
2021/07/01 07:56:37;;;;;;;;;;;17.20;68.80;;;;;;5040798;28;19911;-85
2021/07/01 07:59:06;;;;;;;;;;;17.20;68.70;;;;;;5033237;28;20367;-85
2021/07/01 08:01:33;;;;;;;;;;;17.30;68.70;;;;;;5033365;28;20003;-85
2021/07/01 08:04:01;;;;;;;;;;;17.30;68.60;;;;;;5022888;28;20317;-85
2021/07/01 08:06:26;;;;;;;;;;;17.20;68.80;;;;;;5042493;28;19909;-85
2021/07/01 08:08:55;;;;;;;;;;;17.20;68.80;;;;;;5055767;28;20003;-85
2021/07/01 08:11:21;;;;;;;;;;;17.30;68.80;;;;;;5052471;28;19909;-86
2021/07/01 08:13:47;;;;;;;;;;;17.30;68.70;;;;;;5042833;28;19916;-85
2021/07/01 08:16:12;;;;;;;;;;;17.40;69.40;;;;;;5045876;28;20369;-85
2021/07/01 08:18:40;;;;;;;;;;;17.50;68.90;;;;;;5041488;28;19908;-85
2021/07/01 08:21:10;;;;;;;;;;;17.60;68.80;;;;;;5016266;28;19905;-85
2021/07/01 08:23:36;;;;;;;;;;;17.60;68.20;;;;;;5022832;28;19947;-85
2021/07/01 08:26:03;;;;;;;;;;;17.60;68.30;;;;;;5039502;28;19995;-85
2021/07/01 08:28:29;;;;;;;;;;;17.60;68.40;;;;;;5047081;28;19909;-85
2021/07/01 08:30:59;;;;;;;;;;;17.70;68.20;;;;;;5054396;28;19909;-85
2021/07/01 08:33:28;;;;;;;;;;;17.80;68.00;;;;;;5043369;28;19915;-85
2021/07/01 08:35:54;;;;;;;;;;;17.80;68.00;;;;;;5034993;28;19959;-85
2021/07/01 08:38:20;;;;;;;;;;;17.90;67.80;;;;;;5035556;28;19904;-85
2021/07/01 08:40:47;;;;;;;;;;;17.90;67.60;;;;;;5034568;28;19909;-85
2021/07/01 08:43:13;;;;;;;;;;;18.00;67.50;;;;;;5049057;28;20302;-85
2021/07/01 08:45:57;;;;;;;;;;;18.00;67.40;;;;;;5057575;28;19909;-85
2021/07/01 08:48:24;;;;;;;;;;;18.20;67.50;;;;;;5039343;28;20868;-85
2021/07/01 08:50:54;;;;;;;;;;;18.20;67.30;;;;;;5044967;28;19993;-86
2021/07/01 08:53:29;;;;;;;;;;;18.30;67.20;;;;;;5027618;28;19908;-85
2021/07/01 08:55:57;;;;;;;;;;;18.30;67.40;;;;;;5054691;28;19991;-85
2021/07/01 08:58:24;;;;;;;;;;;18.40;67.30;;;;;;5040077;28;19935;-85
2021/07/01 09:00:49;;;;;;;;;;;18.40;67.50;;;;;;5049015;28;19909;-85
2021/07/01 09:03:16;;;;;;;;;;;18.40;67.60;;;;;;5055955;28;19928;-85
2021/07/01 09:05:45;;;;;;;;;;;18.40;67.60;;;;;;5035197;28;19996;-85
2021/07/01 09:08:11;;;;;;;;;;;18.40;67.50;;;;;;5043663;28;19923;-86
2021/07/01 09:10:37;;;;;;;;;;;18.40;67.60;;;;;;5034622;28;19912;-85
2021/07/01 09:13:04;;;;;;;;;;;18.50;67.60;;;;;;5042305;28;19909;-85
2021/07/01 09:15:30;;;;;;;;;;;18.50;67.60;;;;;;5052283;28;19909;-85
2021/07/01 09:17:56;;;;;;;;;;;18.50;67.80;;;;;;5042373;28;19996;-85
2021/07/01 09:20:28;;;;;;;;;;;18.50;67.50;;;;;;5050344;28;19979;-85
2021/07/01 09:22:55;;;;;;;;;;;18.50;67.80;;;;;;5028738;28;19913;-85
2021/07/01 09:25:20;;;;;;;;;;;18.50;67.80;;;;;;5043776;28;19915;-85
2021/07/01 09:27:47;;;;;;;;;;;18.50;67.70;;;;;;5035921;28;20411;-85
2021/07/01 09:30:14;;;;;;;;;;;18.50;67.60;;;;;;5043214;28;19964;-85
2021/07/01 09:32:41;;;;;;;;;;;18.50;67.50;;;;;;5050501;28;20272;-85
2021/07/01 09:35:08;;;;;;;;;;;18.50;67.40;;;;;;5037118;28;19909;-85
2021/07/01 09:37:46;;;;;;;;;;;18.50;67.10;;;;;;5051008;28;19909;-85
2021/07/01 09:40:13;;;;;;;;;;;18.50;67.10;;;;;;5026324;28;20377;-85
2021/07/01 09:42:39;;;;;;;;;;;18.60;66.90;;;;;;5040111;28;19964;-85
2021/07/01 09:45:09;;;;;;;;;;;18.80;66.70;;;;;;5053736;28;19984;-85
2021/07/01 09:47:36;;;;;;;;;;;18.80;66.10;;;;;;5040180;28;19917;-85
2021/07/01 09:50:03;;;;;;;;;;;18.80;66.20;;;;;;5044807;28;19916;-85
2021/07/01 09:52:30;;;;;;;;;;;18.80;66.00;;;;;;5026534;28;19908;-86
2021/07/01 09:54:57;;;;;;;;;;;18.90;65.90;;;;;;5018304;28;19920;-85
2021/07/01 09:57:28;;;;;;;;;;;19.00;65.90;;;;;;5034440;28;19909;-85
2021/07/01 09:59:54;;;;;;;;;;;19.00;65.70;;;;;;5055074;28;19940;-85
2021/07/01 10:02:21;;;;;;;;;;;19.00;65.80;;;;;;5057699;28;20366;-86
2021/07/01 10:04:47;;;;;;;;;;;19.00;65.80;;;;;;5068995;28;19913;-85
2021/07/01 10:07:14;;;;;;;;;;;19.00;65.70;;;;;;5050969;28;19921;-85
2021/07/01 10:09:41;;;;;;;;;;;19.00;65.70;;;;;;5044540;28;20254;-85
2021/07/01 10:12:17;;;;;;;;;;;19.00;65.80;;;;;;5045671;28;19915;-86
2021/07/01 10:14:42;;;;;;;;;;;18.90;65.80;;;;;;5041805;28;19943;-84
2021/07/01 10:17:12;;;;;;;;;;;18.90;66.00;;;;;;5045455;28;19912;-85
2021/07/01 10:19:38;;;;;;;;;;;18.80;66.20;;;;;;5027949;28;20440;-85
2021/07/01 10:22:05;;;;;;;;;;;18.90;66.20;;;;;;5055145;28;19912;-86
2021/07/01 10:24:32;;;;;;;;;;;18.70;66.30;;;;;;5040565;28;19916;-86
2021/07/01 10:26:59;;;;;;;;;;;18.70;66.40;;;;;;5035540;28;19909;-86
2021/07/01 10:29:34;;;;;;;;;;;18.60;66.60;;;;;;5044241;28;19916;-86
2021/07/01 10:32:04;;;;;;;;;;;18.60;66.60;;;;;;5048145;28;19916;-85
2021/07/01 10:34:30;;;;;;;;;;;18.60;66.60;;;;;;5040054;28;19909;-86
2021/07/01 10:37:11;;;;;;;;;;;18.60;66.60;;;;;;5041386;28;20384;-86
2021/07/01 10:39:38;;;;;;;;;;;18.70;66.60;;;;;;5042453;28;19909;-85
2021/07/01 10:42:04;;;;;;;;;;;18.70;66.50;;;;;;5067151;28;19912;-86
2021/07/01 10:44:30;;;;;;;;;;;18.70;66.30;;;;;;5032472;28;19920;-86
2021/07/01 10:46:56;;;;;;;;;;;18.80;66.40;;;;;;5040313;28;19908;-85
2021/07/01 10:49:30;;;;;;;;;;;18.80;66.10;;;;;;5034501;28;20315;-86
2021/07/01 10:51:57;;;;;;;;;;;18.90;66.30;;;;;;5045248;28;20317;-86
2021/07/01 10:54:23;;;;;;;;;;;18.90;66.00;;;;;;5040932;28;20346;-86
2021/07/01 10:57:02;;;;;;;;;;;18.80;66.00;;;;;;5032932;28;19909;-86
2021/07/01 10:59:43;;;;;;;;;;;18.90;66.10;;;;;;5048690;28;19923;-85
2021/07/01 11:02:09;;;;;;;;;;;18.90;66.10;;;;;;5046886;28;19909;-85
2021/07/01 11:04:48;;;;;;;;;;;19.10;65.90;;;;;;5035299;28;19920;-85
2021/07/01 11:07:14;;;;;;;;;;;19.20;65.80;;;;;;5019923;28;19936;-86
2021/07/01 11:09:43;;;;;;;;;;;19.30;65.50;;;;;;5029860;28;19909;-84
2021/07/01 11:12:09;;;;;;;;;;;19.40;65.40;;;;;;5039281;28;19909;-85
2021/07/01 11:14:38;;;;;;;;;;;19.60;65.40;;;;;;5013463;28;20388;-85
2021/07/01 11:17:05;;;;;;;;;;;19.60;65.20;;;;;;5029583;28;19952;-85
2021/07/01 11:19:44;;;;;;;;;;;19.60;65.20;;;;;;5014969;28;20372;-85
2021/07/01 11:22:10;;;;;;;;;;;19.70;65.10;;;;;;5022477;28;19909;-86
2021/07/01 11:24:43;;;;;;;;;;;19.80;64.90;;;;;;5012416;28;20341;-85
2021/07/01 11:27:09;;;;;;;;;;;19.90;64.80;;;;;;5011323;28;19909;-86
2021/07/01 11:29:35;;;;;;;;;;;20.00;64.70;;;;;;5015601;28;20003;-85
2021/07/01 11:32:01;;;;;;;;;;;20.10;64.60;;;;;;5031504;28;19905;-85
2021/07/01 11:34:38;;;;;;;;;;;20.20;64.50;;;;;;5013061;28;19909;-85
2021/07/01 11:37:03;;;;;;;;;;;20.30;64.30;;;;;;5021318;28;20239;-84
2021/07/01 11:39:29;;;;;;;;;;;20.30;64.20;;;;;;5049127;28;19916;-84
2021/07/01 11:41:58;;;;;;;;;;;20.30;64.10;;;;;;5042519;28;20403;-85
2021/07/01 11:44:23;;;;;;;;;;;20.40;64.10;;;;;;5040285;28;20027;-84
2021/07/01 11:46:50;;;;;;;;;;;20.40;64.10;;;;;;5031769;28;20599;-85
2021/07/01 11:49:16;;;;;;;;;;;20.50;64.00;;;;;;5022790;28;19913;-85
2021/07/01 11:51:42;;;;;;;;;;;20.60;63.90;;;;;;5015003;28;19971;-85
2021/07/01 11:54:08;;;;;;;;;;;20.60;63.90;;;;;;5020571;28;19912;-86
2021/07/01 11:59:19;;;;;;;;;;;20.70;63.70;;;;;;5036349;28;19917;-85
2021/07/01 12:01:45;;;;;;;;;;;20.70;63.60;;;;;;5018633;28;20031;-85
2021/07/01 12:04:11;;;;;;;;;;;20.70;63.60;;;;;;5026346;28;20012;-84
2021/07/01 12:07:01;;;;;;;;;;;20.70;63.60;;;;;;5026362;28;19909;-84
2021/07/01 12:09:27;;;;;;;;;;;20.60;63.50;;;;;;5026613;28;20274;-85
2021/07/01 12:12:05;;;;;;;;;;;20.60;63.60;;;;;;5010807;28;19916;-86
2021/07/01 12:14:34;;;;;;;;;;;20.70;63.40;;;;;;5036132;28;20319;-86
2021/07/01 12:17:01;;;;;;;;;;;20.80;63.30;;;;;;5030660;28;20353;-84
2021/07/01 12:19:45;;;;;;;;;;;20.80;63.10;;;;;;5018569;28;19909;-85
2021/07/01 12:22:31;;;;;;;;;;;20.90;63.10;;;;;;5023916;28;21806;-85
2021/07/01 12:24:56;;;;;;;;;;;20.90;62.90;;;;;;5007902;28;20887;-85
2021/07/01 12:27:31;;;;;;;;;;;21.00;62.50;;;;;;5013217;28;19913;-85
2021/07/01 12:29:56;;;;;;;;;;;21.00;62.50;;;;;;5022241;28;20382;-85
2021/07/01 12:32:26;;;;;;;;;;;21.10;62.50;;;;;;5045044;28;19948;-85
2021/07/01 12:34:52;;;;;;;;;;;21.10;62.30;;;;;;5009799;28;20359;-85
2021/07/01 12:37:19;;;;;;;;;;;21.20;62.10;;;;;;5027866;28;19916;-85
2021/07/01 12:39:47;;;;;;;;;;;21.20;62.00;;;;;;5032409;28;19943;-85
2021/07/01 12:42:16;;;;;;;;;;;21.30;61.80;;;;;;5009295;28;19906;-86
2021/07/01 12:44:43;;;;;;;;;;;21.50;61.40;;;;;;5047171;28;19999;-85
2021/07/01 12:47:11;;;;;;;;;;;21.70;61.00;;;;;;5018165;28;19909;-84
2021/07/01 12:49:37;;;;;;;;;;;21.80;60.70;;;;;;5037406;28;20047;-85
2021/07/01 12:52:07;;;;;;;;;;;21.80;60.40;;;;;;5015659;28;19908;-84
2021/07/01 12:54:33;;;;;;;;;;;21.90;60.30;;;;;;5024691;28;19999;-84
2021/07/01 12:57:00;;;;;;;;;;;21.90;60.20;;;;;;5035148;28;19952;-84
2021/07/01 12:59:27;;;;;;;;;;;21.90;60.10;;;;;;5027658;28;19918;-84
2021/07/01 13:01:53;;;;;;;;;;;22.00;59.90;;;;;;5021604;28;19909;-85
2021/07/01 13:04:23;;;;;;;;;;;22.00;59.90;;;;;;5044712;28;20401;-85
2021/07/01 13:06:50;;;;;;;;;;;22.00;59.60;;;;;;5040438;28;19908;-84
2021/07/01 13:09:29;;;;;;;;;;;22.20;59.40;;;;;;5042945;28;19908;-84
2021/07/01 13:11:55;;;;;;;;;;;22.40;59.20;;;;;;5033772;28;19919;-85
2021/07/01 13:14:28;;;;;;;;;;;22.50;58.90;;;;;;5043510;28;19908;-85
2021/07/01 13:17:01;;;;;;;;;;;22.50;58.90;;;;;;5040142;28;19944;-85
2021/07/01 13:19:26;;;;;;;;;;;22.60;58.70;;;;;;5047740;28;19917;-85
2021/07/01 13:21:54;;;;;;;;;;;22.60;58.60;;;;;;5038570;28;19995;-85
2021/07/01 13:24:20;;;;;;;;;;;22.70;58.30;;;;;;5041490;28;19912;-85
2021/07/01 13:26:46;;;;;;;;;;;22.60;58.00;;;;;;5037222;28;19912;-85
2021/07/01 13:29:12;;;;;;;;;;;22.60;58.10;;;;;;5028728;28;19948;-84
2021/07/01 13:31:37;;;;;;;;;;;22.60;58.10;;;;;;5037422;28;19944;-85
2021/07/01 13:34:04;;;;;;;;;;;22.60;58.10;;;;;;5044615;28;19912;-86
2021/07/01 13:36:30;;;;;;;;;;;22.60;58.20;;;;;;5039605;28;19915;-85
2021/07/01 13:38:56;;;;;;;;;;;22.60;58.10;;;;;;5054976;28;19909;-85
2021/07/01 13:41:28;;;;;;;;;;;22.50;58.20;;;;;;5069250;28;20007;-84
2021/07/01 13:43:53;;;;;;;;;;;22.40;58.30;;;;;;5050118;28;19913;-84
2021/07/01 13:46:22;;;;;;;;;;;22.40;58.30;;;;;;5036551;28;20262;-84
2021/07/01 13:48:57;;;;;;;;;;;22.30;58.40;;;;;;5034123;28;20004;-84
2021/07/01 13:51:25;;;;;;;;;;;22.20;58.50;;;;;;5042302;28;19913;-84
2021/07/01 13:53:51;;;;;;;;;;;22.10;58.30;;;;;;5045051;28;20349;-85
2021/07/01 13:56:16;;;;;;;;;;;22.00;58.40;;;;;;5031684;28;19916;-84
2021/07/01 13:58:43;;;;;;;;;;;22.10;58.40;;;;;;5060894;28;19912;-86
2021/07/01 14:01:10;;;;;;;;;;;22.10;58.00;;;;;;5050823;28;19916;-85
2021/07/01 14:03:40;;;;;;;;;;;22.30;57.90;;;;;;5042486;28;20381;-85
2021/07/01 14:06:10;;;;;;;;;;;22.50;57.60;;;;;;5022433;28;19917;-86
2021/07/01 14:08:38;;;;;;;;;;;22.60;57.20;;;;;;5021535;28;19913;-85
2021/07/01 14:11:07;;;;;;;;;;;22.70;56.90;;;;;;5038194;28;19912;-86
2021/07/01 14:13:43;;;;;;;;;;;22.80;56.90;;;;;;5029697;28;20401;-86
2021/07/01 14:16:10;;;;;;;;;;;22.70;56.80;;;;;;5008345;28;19932;-86
2021/07/01 14:18:36;;;;;;;;;;;22.70;56.90;;;;;;5026146;28;19920;-86
2021/07/01 14:21:03;;;;;;;;;;;22.70;56.80;;;;;;5035606;28;19975;-86